Time;durP1;ratioP1;P1;durP2;ratioP2;P2;SDS_P1;SDS_P2;PMS_P1;PMS_P2;Temp;Humidity;BMP_temperature;BMP_pressure;BME280_temperature;BME280_humidity;BME280_pressure;Samples;Min_cycle;Max_cycle;Signal;HPM_P1;HPM_P2
2023/02/02 00:02:02;;;;;;;2.90;0.80;;;;;;;1.72;100.00;99525.63;6322854;28;20094;-71
2023/02/02 00:05:02;;;;;;;1.85;0.90;;;;;;;1.74;100.00;99518.72;6308344;28;20035;-76
2023/02/02 00:08:03;;;;;;;0.95;0.85;;;;;;;1.75;100.00;99524.69;6343225;28;20047;-76
2023/02/02 00:11:07;;;;;;;0.68;0.68;;;;;;;1.83;100.00;99514.97;6322049;28;20040;-70
2023/02/02 00:14:08;;;;;;;2.03;1.10;;;;;;;1.77;100.00;99510.03;6311223;28;20050;-76
2023/02/02 00:17:10;;;;;;;3.15;1.55;;;;;;;1.79;100.00;99514.25;6343057;28;20040;-76
2023/02/02 00:20:11;;;;;;;0.38;0.38;;;;;;;1.80;100.00;99515.94;6304154;28;20040;-76
2023/02/02 00:23:12;;;;;;;2.00;1.38;;;;;;;1.88;100.00;99518.25;6322009;28;20043;-71
2023/02/02 00:26:12;;;;;;;0.47;0.47;;;;;;;1.83;100.00;99507.25;6339645;28;20088;-71
2023/02/02 00:29:25;;;;;;;0.50;0.50;;;;;;;1.92;100.00;99512.13;6346737;28;20121;-72
2023/02/02 00:32:26;;;;;;;0.90;0.80;;;;;;;1.83;100.00;99502.13;6328922;28;20040;-76
2023/02/02 00:35:27;;;;;;;0.47;0.47;;;;;;;1.88;100.00;99496.84;6335189;28;20055;-76
2023/02/02 00:38:33;;;;;;;1.10;0.77;;;;;;;1.94;100.00;99502.59;6303891;28;20513;-76
2023/02/02 00:41:34;;;;;;;0.88;0.77;;;;;;;2.00;100.00;99510.13;6321485;28;20063;-76
2023/02/02 00:47:54;;;;;;;3.40;0.95;;;;;;;2.07;100.00;99495.28;6322071;28;20047;-76
2023/02/02 00:50:56;;;;;;;0.90;0.77;;;;;;;2.04;100.00;99489.41;6303516;28;20040;-71
2023/02/02 00:53:56;;;;;;;0.80;0.80;;;;;;;2.13;100.00;99492.50;6304194;28;20108;-75
2023/02/02 00:56:57;;;;;;;2.30;2.00;;;;;;;2.04;100.00;99484.25;6321730;28;20047;-76
2023/02/02 00:59:58;;;;;;;4.78;1.30;;;;;;;2.01;100.00;99483.47;6328296;28;20437;-76
2023/02/02 01:03:03;;;;;;;1.63;0.80;;;;;;;2.12;100.00;99492.56;6346484;28;20770;-76
2023/02/02 01:06:04;;;;;;;4.20;1.45;;;;;;;2.18;100.00;99493.19;6332783;28;20032;-76
2023/02/02 01:09:05;;;;;;;2.35;1.33;;;;;;;2.24;100.00;99491.28;6318972;28;20043;-71
2023/02/02 01:12:06;;;;;;;3.60;2.15;;;;;;;2.35;100.00;99496.91;6344278;28;20407;-70
2023/02/02 01:15:10;;;;;;;4.20;2.10;;;;;;;2.31;100.00;99485.03;6328034;28;20051;-71
2023/02/02 01:18:11;;;;;;;3.55;1.88;;;;;;;2.20;100.00;99475.09;6320743;28;20041;-71
2023/02/02 01:21:12;;;;;;;4.05;2.50;;;;;;;2.29;100.00;99472.22;6329735;28;20429;-72
2023/02/02 01:24:13;;;;;;;3.22;1.50;;;;;;;2.26;100.00;99467.16;6352808;28;20406;-71
2023/02/02 01:27:14;;;;;;;1.40;1.23;;;;;;;2.21;100.00;99461.34;6352991;28;20414;-72
2023/02/02 01:30:14;;;;;;;1.27;1.10;;;;;;;2.13;100.00;99461.63;6353175;28;20070;-71
2023/02/02 01:33:16;;;;;;;4.95;1.92;;;;;;;2.17;100.00;99459.78;6347711;28;20100;-71
2023/02/02 01:36:19;;;;;;;4.53;2.20;;;;;;;2.24;100.00;99462.97;6327797;28;20048;-71
2023/02/02 01:39:21;;;;;;;1.75;1.08;;;;;;;2.31;100.00;99461.88;6345860;28;20051;-76
2023/02/02 01:42:25;;;;;;;1.58;1.25;;;;;;;2.21;100.00;99446.75;6327781;28;20040;-71
2023/02/02 01:45:29;;;;;;;1.67;1.20;;;;;;;2.20;100.00;99439.06;6327470;28;20068;-71
2023/02/02 01:48:33;;;;;;;0.90;0.85;;;;;;;2.12;100.00;99446.22;6327492;28;20555;-71
2023/02/02 01:51:52;;;;;;;1.80;1.20;;;;;;;2.11;100.00;99431.69;6346144;28;20044;-71
2023/02/02 01:54:59;;;;;;;1.45;0.73;;;;;;;2.10;100.00;99430.88;6350534;28;20131;-71
2023/02/02 01:58:24;;;;;;;0.95;0.85;;;;;;;2.12;100.00;99416.19;6316602;28;20039;-72
2023/02/02 02:01:25;;;;;;;3.03;1.50;;;;;;;2.14;100.00;99411.84;6325314;28;20044;-71
2023/02/02 02:04:28;;;;;;;1.23;0.98;;;;;;;1.99;100.00;99402.09;6307072;28;20528;-71
2023/02/02 02:07:29;;;;;;;2.40;1.38;;;;;;;2.01;100.00;99401.13;6324601;28;20036;-76
2023/02/02 02:10:29;;;;;;;0.68;0.60;;;;;;;2.05;100.00;99398.47;6325389;28;20059;-76
2023/02/02 02:17:11;;;;;;;0.55;0.55;;;;;;;1.98;100.00;99401.25;6325033;28;20044;-71
2023/02/02 02:27:31;;;;;;;3.53;1.30;;;;;;;2.01;100.00;99421.72;6324361;28;20476;-70
2023/02/02 02:31:17;;;;;;;1.13;1.00;;;;;;;1.96;100.00;99417.66;6306375;28;20039;-71
2023/02/02 02:34:36;;;;;;;2.25;1.15;;;;;;;2.05;100.00;99421.63;6324327;28;20488;-76
2023/02/02 02:38:03;;;;;;;1.35;1.25;;;;;;;2.07;100.00;99420.66;6324717;28;20093;-75
2023/02/02 02:41:20;;;;;;;1.83;1.02;;;;;;;2.05;100.00;99404.44;6306348;28;20036;-71
2023/02/02 02:44:26;;;;;;;2.25;1.20;;;;;;;2.11;100.00;99404.22;6324000;28;20044;-71
2023/02/02 02:47:29;;;;;;;3.10;0.73;;;;;;;2.11;100.00;99393.91;6323931;28;20107;-71
2023/02/02 02:50:30;;;;;;;2.60;1.27;;;;;;;2.18;100.00;99390.25;6305972;28;20472;-71
2023/02/02 02:53:32;;;;;;;3.00;0.77;;;;;;;2.17;100.00;99373.09;6323994;28;20055;-76
2023/02/02 02:56:51;;;;;;;4.50;1.80;;;;;;;2.31;100.00;99364.88;6306022;28;20492;-76
2023/02/02 03:00:20;;;;;;;2.20;1.40;;;;;;;2.21;100.00;99361.78;6323876;28;20134;-70
2023/02/02 03:03:47;;;;;;;0.95;0.77;;;;;;;2.28;100.00;99372.69;6304302;28;20052;-71
2023/02/02 03:06:56;;;;;;;0.82;0.40;;;;;;;2.36;100.00;99387.84;6347202;28;20040;-76
2023/02/02 03:10:00;;;;;;;0.75;0.68;;;;;;;2.35;100.00;99371.56;6330857;28;20106;-76
2023/02/02 03:13:09;;;;;;;0.47;0.40;;;;;;;2.52;100.00;99346.91;6349152;28;20495;-76
2023/02/02 03:16:10;;;;;;;0.38;0.38;;;;;;;2.42;100.00;99352.41;6349359;28;20066;-76
2023/02/02 03:19:12;;;;;;;1.55;0.90;;;;;;;2.35;100.00;99350.97;6349120;28;20040;-76
2023/02/02 03:22:13;;;;;;;3.63;0.70;;;;;;;2.44;100.00;99333.50;6330710;28;20067;-70
2023/02/02 03:25:15;;;;;;;1.33;0.63;;;;;;;2.51;100.00;99340.06;6330561;28;20376;-76
2023/02/02 03:28:17;;;;;;;0.45;0.45;;;;;;;2.51;100.00;99345.22;6349030;28;20502;-76
2023/02/02 03:31:18;;;;;;;0.85;0.75;;;;;;;2.56;100.00;99331.28;6339913;28;20040;-72
2023/02/02 03:34:19;;;;;;;0.30;0.30;;;;;;;2.56;100.00;99322.72;6331418;28;20040;-71
2023/02/02 03:37:20;;;;;;;0.30;0.30;;;;;;;2.50;100.00;99325.53;6305372;28;20191;-76
2023/02/02 03:40:21;;;;;;;0.73;0.73;;;;;;;2.46;100.00;99318.81;6305145;28;20109;-76
2023/02/02 03:43:23;;;;;;;0.35;0.35;;;;;;;2.19;100.00;99332.69;6323250;28;20044;-76
2023/02/02 03:46:23;;;;;;;0.30;0.30;;;;;;;2.31;100.00;99317.69;6342205;28;20048;-76
2023/02/02 03:49:24;;;;;;;0.40;0.40;;;;;;;2.36;100.00;99313.19;6348291;28;20400;-76
2023/02/02 03:52:25;;;;;;;0.20;0.20;;;;;;;2.36;100.00;99336.38;6348132;28;20131;-76
2023/02/02 03:55:26;;;;;;;0.30;0.30;;;;;;;2.42;100.00;99336.97;6348140;28;20101;-76
2023/02/02 03:58:30;;;;;;;0.20;0.20;;;;;;;2.30;100.00;99352.03;6341911;28;20526;-71
2023/02/02 04:01:31;;;;;;;0.35;0.35;;;;;;;2.39;100.00;99336.25;6313233;28;20040;-71
2023/02/02 04:04:32;;;;;;;0.43;0.38;;;;;;;2.35;100.00;99355.31;6322519;28;20047;-74
2023/02/02 04:07:33;;;;;;;0.50;0.50;;;;;;;2.22;100.00;99342.91;6292827;28;20041;-76
2023/02/02 04:10:33;;;;;;;0.10;0.10;;;;;;;2.27;100.00;99334.16;6297196;28;20037;-71
2023/02/02 04:13:34;;;;;;;1.35;0.30;;;;;;;2.28;100.00;99340.97;6279220;28;20115;-76
2023/02/02 04:16:36;;;;;;;0.30;0.30;;;;;;;2.25;100.00;99348.81;6296671;28;20095;-71
2023/02/02 04:19:37;;;;;;;0.43;0.43;;;;;;;2.23;100.00;99333.44;6296679;28;20151;-71
2023/02/02 04:22:38;;;;;;;0.10;0.10;;;;;;;2.26;100.00;99325.56;6279555;28;20496;-71
2023/02/02 04:25:38;;;;;;;0.30;0.20;;;;;;;2.24;100.00;99334.25;6321634;28;20040;-71
2023/02/02 04:28:39;;;;;;;0.20;0.20;;;;;;;2.34;100.00;99336.41;6303446;28;20118;-71
2023/02/02 04:31:40;;;;;;;0.77;0.45;;;;;;;2.17;100.00;99328.50;6325769;28;20043;-71
2023/02/02 04:34:41;;;;;;;1.30;0.77;;;;;;;2.22;100.00;99321.44;6339914;28;20089;-70
2023/02/02 04:37:43;;;;;;;0.73;0.35;;;;;;;2.20;100.00;99330.97;6321595;28;20462;-71
2023/02/02 04:40:45;;;;;;;0.57;0.32;;;;;;;2.14;100.00;99333.75;6321136;28;20048;-72
2023/02/02 04:43:49;;;;;;;0.20;0.20;;;;;;;2.16;100.00;99326.81;6317158;28;20044;-72
2023/02/02 04:46:49;;;;;;;0.28;0.28;;;;;;;2.13;100.00;99334.69;6295966;28;20048;-71
2023/02/02 04:49:50;;;;;;;0.15;0.15;;;;;;;2.09;100.00;99340.84;6287587;28;20052;-77
2023/02/02 04:52:53;;;;;;;0.52;0.52;;;;;;;2.15;100.00;99350.91;6274289;28;20052;-72
2023/02/02 04:55:54;;;;;;;1.25;0.63;;;;;;;2.09;100.00;99351.13;6278114;28;20411;-77
2023/02/02 04:58:55;;;;;;;1.67;0.95;;;;;;;2.04;100.00;99356.44;6298616;28;20044;-77
2023/02/02 05:02:03;;;;;;;0.32;0.30;;;;;;;2.07;100.00;99356.31;6315631;28;20450;-77
2023/02/02 05:05:07;;;;;;;0.50;0.50;;;;;;;2.13;100.00;99368.13;6294564;28;20075;-77
2023/02/02 05:08:10;;;;;;;0.20;0.20;;;;;;;2.08;100.00;99362.31;6295674;28;20068;-71
2023/02/02 05:11:17;;;;;;;0.20;0.20;;;;;;;2.27;100.00;99378.75;6295782;28;20076;-78
2023/02/02 05:14:20;;;;;;;0.20;0.20;;;;;;;2.19;100.00;99376.47;6308813;28;20032;-77
2023/02/02 05:17:21;;;;;;;0.20;0.20;;;;;;;2.18;100.00;99368.78;6302908;28;20488;-77
2023/02/02 05:20:22;;;;;;;0.20;0.20;;;;;;;2.25;100.00;99377.13;6302875;28;20044;-77
2023/02/02 05:23:22;;;;;;;0.32;0.32;;;;;;;2.20;100.00;99379.88;6320706;28;20059;-77
2023/02/02 05:26:28;;;;;;;6.55;1.05;;;;;;;2.15;100.00;99380.03;6302757;28;20040;-77
2023/02/02 05:29:31;;;;;;;0.65;0.65;;;;;;;2.14;100.00;99375.81;6308006;28;20113;-77
2023/02/02 05:32:32;;;;;;;0.90;0.85;;;;;;;2.03;100.00;99384.81;6307884;28;20485;-77
2023/02/02 05:35:36;;;;;;;2.75;1.30;;;;;;;1.99;100.00;99382.34;6325759;28;20036;-77
2023/02/02 05:38:38;;;;;;;0.60;0.60;;;;;;;2.05;100.00;99389.00;6325745;28;20044;-77
2023/02/02 05:41:38;;;;;;;0.55;0.55;;;;;;;2.16;100.00;99397.19;6307550;28;20114;-77
2023/02/02 05:44:39;;;;;;;4.15;0.98;;;;;;;2.09;100.00;99395.72;6307597;28;20480;-71
2023/02/02 05:47:40;;;;;;;0.50;0.50;;;;;;;2.08;100.00;99399.19;6307404;28;20036;-71
2023/02/02 05:50:44;;;;;;;0.30;0.30;;;;;;;2.12;100.00;99405.91;6325509;28;20048;-71
2023/02/02 05:53:45;;;;;;;1.25;1.15;;;;;;;2.21;100.00;99415.03;6336696;28;20051;-77
2023/02/02 05:56:49;;;;;;;0.50;0.50;;;;;;;2.18;100.00;99415.13;6350650;28;20078;-71
2023/02/02 05:59:50;;;;;;;4.65;0.68;;;;;;;2.14;100.00;99413.53;6350679;28;20062;-77
2023/02/02 06:02:51;;;;;;;0.93;0.68;;;;;;;2.11;100.00;99416.25;6350490;28;20035;-77
2023/02/02 06:05:54;;;;;;;1.38;0.60;;;;;;;2.04;100.00;99407.91;6332205;28;20046;-71
2023/02/02 06:08:55;;;;;;;0.30;0.30;;;;;;;1.98;100.00;99415.88;6332104;28;20043;-77
2023/02/02 06:11:56;;;;;;;1.00;0.77;;;;;;;2.00;100.00;99427.78;6332152;28;20392;-77
2023/02/02 06:14:57;;;;;;;1.60;0.75;;;;;;;2.03;100.00;99426.81;6350116;28;20047;-72
2023/02/02 06:17:57;;;;;;;0.40;0.40;;;;;;;2.00;100.00;99424.38;6331952;28;20663;-77
2023/02/02 06:21:00;;;;;;;3.00;1.40;;;;;;;2.03;100.00;99438.84;6331990;28;20042;-77
2023/02/02 06:24:01;;;;;;;2.65;1.50;;;;;;;2.11;100.00;99450.53;6349944;28;20058;-71
2023/02/02 06:27:04;;;;;;;3.10;1.52;;;;;;;2.08;100.00;99442.09;6331773;28;20035;-71
2023/02/02 06:30:07;;;;;;;1.40;0.77;;;;;;;2.16;100.00;99456.38;6331733;28;20051;-71
2023/02/02 06:33:08;;;;;;;2.92;0.68;;;;;;;2.32;100.00;99460.97;6349544;28;20047;-71
2023/02/02 06:36:09;;;;;;;1.35;0.95;;;;;;;2.13;100.00;99460.78;6331662;28;20044;-77
2023/02/02 06:39:10;;;;;;;0.63;0.63;;;;;;;2.16;100.00;99463.25;6349447;28;20177;-77
2023/02/02 06:42:11;;;;;;;0.55;0.55;;;;;;;2.31;100.00;99469.59;6331427;28;20483;-77
2023/02/02 06:45:12;;;;;;;0.73;0.52;;;;;;;2.33;100.00;99470.38;6331533;28;20042;-77
2023/02/02 06:48:13;;;;;;;1.42;1.33;;;;;;;2.30;100.00;99479.03;6331216;28;20088;-77
2023/02/02 06:51:14;;;;;;;3.97;1.17;;;;;;;2.35;100.00;99490.00;6331026;28;20381;-77
2023/02/02 06:54:15;;;;;;;2.58;1.60;;;;;;;2.40;100.00;99490.66;6348827;28;20058;-77
2023/02/02 06:57:15;;;;;;;2.78;1.92;;;;;;;2.38;100.00;99495.03;6349288;28;20047;-77
2023/02/02 07:00:17;;;;;;;1.63;1.50;;;;;;;2.42;100.00;99498.34;6330965;28;20047;-71
2023/02/02 07:03:20;;;;;;;2.08;1.88;;;;;;;2.46;100.00;99496.50;6330940;28;20050;-71
2023/02/02 07:06:24;;;;;;;2.65;1.55;;;;;;;2.50;100.00;99500.66;6348875;28;20050;-71
2023/02/02 07:09:24;;;;;;;1.98;1.10;;;;;;;2.48;100.00;99499.88;6330754;28;20064;-71
2023/02/02 07:12:26;;;;;;;9.85;0.70;;;;;;;2.65;100.00;99504.38;6348929;28;20036;-71
2023/02/02 07:15:26;;;;;;;0.80;0.50;;;;;;;2.59;100.00;99503.75;6330475;28;20487;-71
2023/02/02 07:18:28;;;;;;;1.02;0.73;;;;;;;2.75;100.00;99505.72;6330828;28;20071;-77
2023/02/02 07:21:34;;;;;;;0.40;0.40;;;;;;;2.73;100.00;99515.25;6330449;28;20067;-77
2023/02/02 07:24:37;;;;;;;2.53;0.88;;;;;;;2.90;100.00;99507.72;6348600;28;20468;-77
2023/02/02 07:27:37;;;;;;;4.45;1.50;;;;;;;3.02;100.00;99506.41;6348370;28;20088;-78
2023/02/02 07:30:38;;;;;;;12.10;1.23;;;;;;;3.07;100.00;99513.94;6348334;28;20036;-71
2023/02/02 07:33:41;;;;;;;2.95;1.95;;;;;;;3.05;100.00;99514.03;6348128;28;20502;-71
2023/02/02 07:36:42;;;;;;;1.85;1.00;;;;;;;3.12;99.67;99522.38;6348281;28;20265;-71
2023/02/02 07:39:43;;;;;;;1.00;0.80;;;;;;;3.08;99.94;99531.94;6348215;28;20488;-72
2023/02/02 07:42:47;;;;;;;0.80;0.80;;;;;;;3.21;99.55;99528.00;6348096;28;20054;-77
2023/02/02 07:45:48;;;;;;;3.53;0.75;;;;;;;3.26;98.96;99532.97;6347878;28;20039;-77
2023/02/02 07:48:55;;;;;;;1.20;1.08;;;;;;;3.17;99.74;99533.31;6329985;28;20043;-77
2023/02/02 07:51:57;;;;;;;1.88;1.10;;;;;;;3.43;98.65;99542.63;6347465;28;20065;-77
2023/02/02 07:54:59;;;;;;;0.88;0.80;;;;;;;3.36;98.26;99533.47;6347615;28;20162;-77
2023/02/02 07:58:00;;;;;;;2.13;1.23;;;;;;;3.40;98.26;99548.75;6348027;28;20036;-72
2023/02/02 08:01:02;;;;;;;1.92;1.30;;;;;;;3.30;99.29;99547.44;6347505;28;20040;-71
2023/02/02 08:04:03;;;;;;;2.78;0.90;;;;;;;3.29;99.58;99552.63;6329368;28;20046;-72
2023/02/02 08:07:04;;;;;;;1.92;1.33;;;;;;;3.27;99.06;99550.13;6347502;28;20118;-72
2023/02/02 08:10:08;;;;;;;0.60;0.60;;;;;;;3.39;98.59;99551.38;6329373;28;20080;-71
2023/02/02 08:13:09;;;;;;;2.95;1.05;;;;;;;3.49;98.02;99552.69;6347260;28;20570;-77
2023/02/02 08:16:11;;;;;;;2.10;1.10;;;;;;;3.48;96.88;99540.72;6347210;28;20047;-71
2023/02/02 08:19:12;;;;;;;0.77;0.75;;;;;;;3.60;96.26;99554.84;6347226;28;20487;-71
2023/02/02 08:22:13;;;;;;;2.42;1.15;;;;;;;3.64;95.98;99556.38;6329248;28;20109;-71
2023/02/02 08:25:13;;;;;;;0.90;0.57;;;;;;;3.57;95.93;99554.97;6346829;28;20039;-72
2023/02/02 08:28:14;;;;;;;2.63;1.63;;;;;;;3.66;94.27;99548.59;6328937;28;20035;-71
2023/02/02 08:31:32;;;;;;;3.03;1.90;;;;;;;3.52;95.07;99549.16;6328734;28;20063;-77
2023/02/02 08:34:35;;;;;;;1.20;0.63;;;;;;;3.94;93.73;99549.13;6346998;28;20044;-77
2023/02/02 08:37:36;;;;;;;0.63;0.63;;;;;;;4.12;91.46;99562.16;6328751;28;20066;-77
2023/02/02 08:40:37;;;;;;;0.65;0.63;;;;;;;4.32;90.62;99566.50;6328655;28;20478;-72
2023/02/02 08:43:39;;;;;;;5.25;0.82;;;;;;;4.30;90.31;99569.13;6328564;28;20047;-71
2023/02/02 08:46:40;;;;;;;2.00;1.43;;;;;;;4.25;90.11;99563.34;6346529;28;20122;-71
2023/02/02 08:49:41;;;;;;;1.23;0.65;;;;;;;4.71;88.32;99561.31;6328418;28;20282;-71
2023/02/02 08:52:42;;;;;;;0.70;0.70;;;;;;;4.83;87.56;99573.69;6328434;28;20056;-71
2023/02/02 08:55:43;;;;;;;0.57;0.57;;;;;;;4.93;86.14;99568.94;6346386;28;20051;-71
2023/02/02 08:58:46;;;;;;;0.77;0.70;;;;;;;5.33;86.21;99584.38;6328404;28;20043;-77
2023/02/02 09:01:47;;;;;;;0.47;0.47;;;;;;;5.63;83.86;99574.31;6346356;28;20047;-77
2023/02/02 09:04:48;;;;;;;1.30;0.73;;;;;;;5.93;82.19;99584.09;6346393;28;20403;-77
2023/02/02 09:07:49;;;;;;;1.90;0.77;;;;;;;5.86;79.85;99581.78;6346154;28;20040;-72
2023/02/02 09:10:51;;;;;;;1.38;0.88;;;;;;;5.75;78.75;99588.44;6328140;28;20088;-71
2023/02/02 09:13:57;;;;;;;1.15;0.80;;;;;;;5.73;78.79;99588.50;6346019;28;20048;-72
2023/02/02 09:16:57;;;;;;;1.33;0.95;;;;;;;5.77;78.93;99590.03;6346244;28;20103;-72
2023/02/02 09:19:58;;;;;;;3.63;0.75;;;;;;;5.83;76.75;99586.31;6328018;28;20047;-77
2023/02/02 09:23:01;;;;;;;1.33;1.02;;;;;;;6.00;77.06;99588.09;6346011;28;20047;-72
2023/02/02 09:26:26;;;;;;;0.50;0.50;;;;;;;6.11;77.47;99590.97;6345910;28;20158;-72
2023/02/02 09:29:27;;;;;;;4.20;0.50;;;;;;;6.30;75.79;99588.31;6327905;28;20040;-71
2023/02/02 09:32:30;;;;;;;0.80;0.80;;;;;;;5.99;74.71;99591.59;6327670;28;20498;-77
2023/02/02 09:35:33;;;;;;;1.60;0.75;;;;;;;6.25;75.80;99603.25;6327864;28;20051;-77
2023/02/02 09:38:35;;;;;;;1.10;0.85;;;;;;;6.47;74.36;99605.59;6345796;28;20043;-77
2023/02/02 09:41:42;;;;;;;4.97;2.23;;;;;;;6.47;73.77;99605.59;6327802;28;20044;-77
2023/02/02 09:44:58;;;;;;;1.25;1.10;;;;;;;6.63;72.54;99603.88;6345853;28;20036;-77
2023/02/02 09:48:23;;;;;;;1.08;0.57;;;;;;;6.73;73.22;99606.00;6346077;28;20148;-77
2023/02/02 09:51:35;;;;;;;0.50;0.50;;;;;;;6.95;72.82;99621.28;6327728;28;20114;-77
2023/02/02 09:54:44;;;;;;;1.65;0.93;;;;;;;7.21;72.58;99612.09;6345606;28;20048;-77
2023/02/02 09:57:49;;;;;;;1.25;0.55;;;;;;;7.01;70.49;99618.34;6345629;28;20043;-77
2023/02/02 10:00:58;;;;;;;1.25;1.00;;;;;;;6.88;70.98;99617.31;6345694;28;20484;-78
2023/02/02 10:04:05;;;;;;;1.38;0.90;;;;;;;7.05;70.17;99605.13;6346228;28;20112;-77
2023/02/02 10:07:17;;;;;;;2.65;1.80;;;;;;;7.01;70.00;99606.22;6327286;28;20551;-77
2023/02/02 10:10:28;;;;;;;2.88;0.90;;;;;;;6.84;69.80;99603.69;6345381;28;20069;-71
2023/02/02 10:13:36;;;;;;;1.90;1.38;;;;;;;7.24;69.71;99594.59;6328988;28;20168;-71
2023/02/02 10:16:39;;;;;;;1.55;0.95;;;;;;;7.07;68.02;99592.09;6350053;28;20051;-72
2023/02/02 10:19:42;;;;;;;2.55;1.38;;;;;;;7.38;66.59;99598.19;6331918;28;20039;-73
2023/02/02 10:22:44;;;;;;;;;;;;;;;7.55;67.26;99592.06;6332254;28;20047;-72
2023/02/02 10:26:23;;;;;;;0.70;0.65;;;;;;;7.43;65.91;99596.16;6331729;28;19949;-72
2023/02/02 10:29:32;;;;;;;2.30;1.52;;;;;;;7.49;66.28;99606.22;6349807;28;20122;-72
2023/02/02 10:32:41;;;;;;;1.85;1.17;;;;;;;7.37;66.18;99610.34;6332097;28;20040;-72
2023/02/02 10:35:59;;;;;;;1.48;1.10;;;;;;;7.46;65.27;99601.22;6331410;28;20101;-76
2023/02/02 10:39:12;;;;;;;1.00;0.88;;;;;;;7.44;67.21;99605.66;6349865;28;20040;-77
2023/02/02 10:42:28;;;;;;;1.20;1.05;;;;;;;7.35;65.10;99595.75;6331595;28;20050;-77
2023/02/02 10:45:29;;;;;;;0.88;0.75;;;;;;;7.59;65.11;99594.41;6331241;28;20487;-77
2023/02/02 10:48:34;;;;;;;2.60;1.23;;;;;;;7.76;63.72;99600.41;6331306;28;20069;-77
2023/02/02 10:51:36;;;;;;;1.52;1.05;;;;;;;8.00;64.49;99604.22;6349429;28;20067;-77
2023/02/02 10:55:09;;;;;;;1.45;0.93;;;;;;;8.24;63.38;99599.34;6348984;28;20131;-77
2023/02/02 10:58:10;;;;;;;3.90;0.90;;;;;;;7.96;61.07;99599.28;6331096;28;20123;-77
2023/02/02 11:01:12;;;;;;;2.83;0.98;;;;;;;8.14;61.32;99587.00;6331114;28;20510;-71
2023/02/02 11:07:32;;;;;;;0.30;0.30;;;;;;;7.75;60.86;99591.78;6348939;28;20046;-72
2023/02/02 11:10:33;;;;;;;0.73;0.68;;;;;;;8.31;61.01;99586.81;6330645;28;20040;-71
2023/02/02 11:13:49;;;;;;;1.48;0.60;;;;;;;8.10;61.37;99585.50;6348918;28;20097;-77
2023/02/02 11:17:03;;;;;;;0.73;0.35;;;;;;;8.32;60.88;99583.31;6330503;28;20081;-77
2023/02/02 11:20:31;;;;;;;1.17;0.65;;;;;;;8.54;59.58;99582.88;6330647;28;20040;-71
2023/02/02 11:23:32;;;;;;;2.35;1.30;;;;;;;8.54;57.68;99585.47;6330434;28;20055;-71
2023/02/02 11:26:48;;;;;;;5.63;2.13;;;;;;;8.53;57.52;99578.63;6347257;28;20110;-77
2023/02/02 11:29:54;;;;;;;2.20;1.30;;;;;;;8.64;56.70;99567.56;6330485;28;20074;-77
2023/02/02 11:32:55;;;;;;;6.30;0.90;;;;;;;8.87;56.47;99569.63;6348472;28;20470;-77
2023/02/02 11:36:20;;;;;;;1.17;0.65;;;;;;;8.86;57.14;99560.13;6348366;28;20040;-77
2023/02/02 11:39:23;;;;;;;0.90;0.70;;;;;;;9.14;55.14;99560.16;6330131;28;20043;-72
2023/02/02 11:42:27;;;;;;;1.27;0.85;;;;;;;9.05;54.95;99562.41;6348091;28;20536;-71
2023/02/02 11:45:33;;;;;;;5.32;0.88;;;;;;;8.82;56.15;99565.63;6329704;28;20055;-71
2023/02/02 11:48:37;;;;;;;8.60;0.95;;;;;;;8.41;56.41;99566.34;6347996;28;20059;-77
2023/02/02 11:51:38;;;;;;;4.03;1.60;;;;;;;8.20;59.16;99561.47;6347898;28;20040;-77
2023/02/02 11:54:46;;;;;;;0.40;0.40;;;;;;;7.91;56.26;99555.38;6347588;28;20419;-71
2023/02/02 11:58:17;;;;;;;0.35;0.35;;;;;;;7.44;59.34;99551.13;6329588;28;20487;-71
2023/02/02 12:01:25;;;;;;;0.90;0.73;;;;;;;7.62;61.24;99550.09;6329978;28;20043;-77
2023/02/02 12:04:26;;;;;;;1.27;0.70;;;;;;;8.49;59.45;99542.50;6347578;28;20040;-77
2023/02/02 12:07:30;;;;;;;0.40;0.40;;;;;;;7.95;57.20;99543.91;6329246;28;20035;-77
2023/02/02 12:10:39;;;;;;;0.55;0.38;;;;;;;7.87;54.91;99549.53;6347421;28;20067;-77
2023/02/02 12:14:03;;;;;;;0.70;0.55;;;;;;;8.12;55.14;99532.50;6329404;28;20119;-78
2023/02/02 12:17:37;;;;;;;0.82;0.50;;;;;;;8.34;55.95;99532.06;6329135;28;20043;-72
2023/02/02 12:21:01;;;;;;;0.90;0.82;;;;;;;7.99;56.07;99539.34;6329199;28;20040;-71
2023/02/02 12:24:20;;;;;;;0.60;0.43;;;;;;;7.97;55.58;99538.59;6328965;28;20077;-72
2023/02/02 12:27:50;;;;;;;0.82;0.70;;;;;;;8.11;55.47;99530.00;6346883;28;20126;-72
2023/02/02 12:31:21;;;;;;;2.50;0.90;;;;;;;8.49;54.39;99529.50;6346961;28;20067;-77
2023/02/02 12:34:46;;;;;;;0.80;0.50;;;;;;;8.62;56.16;99515.63;6346890;28;20127;-77
2023/02/02 12:38:14;;;;;;;1.52;0.90;;;;;;;8.41;55.17;99524.75;6328302;28;20550;-72
2023/02/02 12:41:30;;;;;;;1.23;0.60;;;;;;;8.61;54.58;99519.19;6328667;28;20047;-72
2023/02/02 12:45:08;;;;;;;1.48;0.68;;;;;;;8.50;55.92;99515.56;6328442;28;20403;-72
2023/02/02 12:48:37;;;;;;;1.25;0.68;;;;;;;8.61;56.37;99513.16;6328579;28;20039;-72
2023/02/02 12:51:59;;;;;;;1.08;0.70;;;;;;;8.87;54.34;99514.97;6346479;28;20035;-72
2023/02/02 12:55:27;;;;;;;1.20;0.43;;;;;;;8.40;53.57;99530.84;6328027;28;20082;-72
2023/02/02 12:58:38;;;;;;;0.75;0.57;;;;;;;8.23;54.31;99530.09;6346263;28;20063;-72
2023/02/02 13:01:45;;;;;;;0.60;0.50;;;;;;;8.12;55.09;99535.09;6328167;28;20067;-72
2023/02/02 13:05:23;;;;;;;0.40;0.40;;;;;;;8.07;56.37;99526.72;6346200;28;20043;-76
2023/02/02 13:09:08;;;;;;;1.90;0.82;;;;;;;7.65;58.04;99541.28;6328033;28;20545;-71
2023/02/02 13:12:13;;;;;;;0.35;0.35;;;;;;;7.39;58.98;99538.44;6243311;28;20049;-72
2023/02/02 13:15:19;;;;;;;1.15;0.40;;;;;;;7.21;58.72;99535.09;6226530;28;20045;-71
2023/02/02 13:18:26;;;;;;;0.70;0.70;;;;;;;7.10;59.46;99523.63;6328081;28;20071;-72
2023/02/02 13:21:31;;;;;;;2.50;0.65;;;;;;;7.10;59.76;99539.19;6346025;28;20046;-71
2023/02/02 13:24:37;;;;;;;0.88;0.55;;;;;;;7.20;60.61;99546.38;6345871;28;20039;-71
2023/02/02 13:27:40;;;;;;;1.40;0.73;;;;;;;7.12;60.72;99548.56;6345790;28;20043;-71
2023/02/02 13:30:40;;;;;;;2.85;0.50;;;;;;;6.96;63.06;99551.16;6327795;28;20040;-71
2023/02/02 13:33:47;;;;;;;1.08;0.40;;;;;;;6.81;62.69;99552.78;6345882;28;20074;-71
2023/02/02 13:37:02;;;;;;;1.45;0.60;;;;;;;6.73;63.31;99560.16;6327692;28;20043;-71
2023/02/02 13:40:31;;;;;;;0.80;0.40;;;;;;;7.05;61.54;99553.25;6327624;28;20451;-72
2023/02/02 13:43:41;;;;;;;1.80;1.23;;;;;;;7.16;60.95;99557.00;6334676;28;20161;-77
2023/02/02 13:46:46;;;;;;;5.03;0.60;;;;;;;7.34;60.17;99553.41;6327484;28;20040;-71
2023/02/02 13:49:53;;;;;;;0.95;0.85;;;;;;;7.23;61.16;99556.59;6349753;28;20035;-72
2023/02/02 13:53:03;;;;;;;1.13;0.65;;;;;;;7.32;59.65;99551.81;6332432;28;20078;-71
2023/02/02 13:56:25;;;;;;;0.82;0.43;;;;;;;7.33;59.56;99556.06;6332683;28;20177;-72
2023/02/02 13:59:52;;;;;;;1.97;0.70;;;;;;;7.43;59.65;99552.91;6350694;28;20468;-77
2023/02/02 14:03:02;;;;;;;0.75;0.60;;;;;;;7.44;60.92;99561.53;6332362;28;20075;-72
2023/02/02 14:06:11;;;;;;;5.45;0.77;;;;;;;7.67;59.19;99568.00;6332251;28;20135;-72
2023/02/02 14:09:17;;;;;;;1.27;0.70;;;;;;;7.79;59.01;99563.88;6350369;28;20039;-77
2023/02/02 14:12:30;;;;;;;0.45;0.35;;;;;;;7.39;60.09;99556.59;6332190;28;20043;-77
2023/02/02 14:15:43;;;;;;;4.03;0.68;;;;;;;7.24;60.31;99566.03;6350249;28;20051;-77
2023/02/02 14:18:49;;;;;;;1.25;0.60;;;;;;;6.91;61.29;99565.28;6331923;28;20400;-77
2023/02/02 14:22:10;;;;;;;0.40;0.35;;;;;;;6.97;62.77;99563.19;6332028;28;20051;-77
2023/02/02 14:25:32;;;;;;;0.85;0.70;;;;;;;7.05;62.20;99568.81;6331819;28;20035;-77
2023/02/02 14:28:45;;;;;;;0.30;0.30;;;;;;;6.87;63.79;99556.84;6331700;28;20039;-76
2023/02/02 14:31:53;;;;;;;0.40;0.40;;;;;;;6.91;63.66;99563.53;6331826;28;20070;-77
2023/02/02 14:34:55;;;;;;;0.38;0.38;;;;;;;6.67;63.41;99570.84;6349797;28;20046;-72
2023/02/02 14:38:13;;;;;;;0.45;0.45;;;;;;;6.44;64.66;99567.72;6331572;28;20043;-72
2023/02/02 14:45:13;;;;;;;0.70;0.43;;;;;;;6.09;66.19;99581.63;6349862;28;20040;-71
2023/02/02 14:48:19;;;;;;;3.90;1.00;;;;;;;6.11;65.75;99579.78;6349669;28;20114;-72
2023/02/02 14:51:23;;;;;;;0.38;0.38;;;;;;;6.14;65.96;99580.47;6349375;28;20035;-73
2023/02/02 14:54:37;;;;;;;2.63;0.88;;;;;;;5.94;67.20;99581.44;6349066;28;20052;-72
2023/02/02 14:57:38;;;;;;;0.63;0.38;;;;;;;5.98;66.20;99582.97;6331233;28;20044;-77
2023/02/02 15:00:39;;;;;;;2.67;0.93;;;;;;;5.98;66.22;99592.50;6349040;28;20407;-72
2023/02/02 15:03:46;;;;;;;1.05;0.68;;;;;;;5.89;66.35;99595.50;6330908;28;20089;-71